Mitchell, South Dakota
Current Conditions -  °F | °C
As of 10:53 AM on Wednesday 26 Nov 2014 (Local Time) from KMHE Reporting Station
Unknown Precip Unknown Precip  
Wind Chill: -3°   Ceiling: 1000
Heat Index: 14°   Visibility: 7mi
Dew Point:   Wind: 18mph
Humidity: 77%   Direction: 340°NNW
Pressure: 30.32"   Gusts: NA
Location:  43.7°N, 98.03°W
Report Text: KMHE 261653Z AUTO 34016KT 7SM UP OVC010 M10/M13 A3032 RMK AO2 UPB00SNE00B13E24B41E42B43E53 SLP287 P0000 T11001133
Loading
Personal Weather Stations






























Interactive Weather Map New forecast layout! Learn more

10-Day Weather Forecast

Advertisements
Track Severe Weather on mobile